sensor_id;sensor_type;location;lat;lon;timestamp;temperature;humidity
72206;DHT22;60111;48.286;7.812;2023-12-20T00:02:14;5.80;83.90
72206;DHT22;60111;48.286;7.812;2023-12-20T00:04:46;5.80;84.40
72206;DHT22;60111;48.286;7.812;2023-12-20T00:07:18;5.80;84.60
72206;DHT22;60111;48.286;7.812;2023-12-20T00:09:50;5.80;84.40
72206;DHT22;60111;48.286;7.812;2023-12-20T00:12:22;5.80;85.00
72206;DHT22;60111;48.286;7.812;2023-12-20T00:14:54;5.70;85.20
72206;DHT22;60111;48.286;7.812;2023-12-20T00:17:26;5.70;85.00
72206;DHT22;60111;48.286;7.812;2023-12-20T00:19:57;5.70;85.30
72206;DHT22;60111;48.286;7.812;2023-12-20T00:22:30;5.70;86.00
72206;DHT22;60111;48.286;7.812;2023-12-20T00:25:02;5.60;86.30
72206;DHT22;60111;48.286;7.812;2023-12-20T00:27:34;5.60;86.50
72206;DHT22;60111;48.286;7.812;2023-12-20T00:30:06;5.70;86.00
72206;DHT22;60111;48.286;7.812;2023-12-20T00:32:38;5.70;86.60
72206;DHT22;60111;48.286;7.812;2023-12-20T00:35:10;5.70;86.80
72206;DHT22;60111;48.286;7.812;2023-12-20T00:37:46;5.70;86.60
72206;DHT22;60111;48.286;7.812;2023-12-20T00:40:15;5.70;86.90
72206;DHT22;60111;48.286;7.812;2023-12-20T00:42:47;5.60;86.80
72206;DHT22;60111;48.286;7.812;2023-12-20T00:45:19;5.70;86.70
72206;DHT22;60111;48.286;7.812;2023-12-20T00:47:50;5.60;87.10
72206;DHT22;60111;48.286;7.812;2023-12-20T00:50:22;5.70;86.90
72206;DHT22;60111;48.286;7.812;2023-12-20T00:52:54;5.70;87.10
72206;DHT22;60111;48.286;7.812;2023-12-20T00:55:27;5.70;87.20
72206;DHT22;60111;48.286;7.812;2023-12-20T00:57:59;5.70;87.40
72206;DHT22;60111;48.286;7.812;2023-12-20T01:00:31;5.70;87.60
72206;DHT22;60111;48.286;7.812;2023-12-20T01:03:03;5.60;88.00
72206;DHT22;60111;48.286;7.812;2023-12-20T01:05:35;5.60;87.40
72206;DHT22;60111;48.286;7.812;2023-12-20T01:08:06;5.60;87.70
72206;DHT22;60111;48.286;7.812;2023-12-20T01:10:38;5.70;87.40
72206;DHT22;60111;48.286;7.812;2023-12-20T01:13:11;5.70;87.60
72206;DHT22;60111;48.286;7.812;2023-12-20T01:15:43;5.70;87.50
72206;DHT22;60111;48.286;7.812;2023-12-20T01:18:15;5.70;87.40
72206;DHT22;60111;48.286;7.812;2023-12-20T01:20:46;5.70;87.60
72206;DHT22;60111;48.286;7.812;2023-12-20T01:23:18;5.70;87.40
72206;DHT22;60111;48.286;7.812;2023-12-20T01:25:50;5.70;87.50
72206;DHT22;60111;48.286;7.812;2023-12-20T01:28:22;5.70;87.20
72206;DHT22;60111;48.286;7.812;2023-12-20T01:30:54;5.70;87.40
72206;DHT22;60111;48.286;7.812;2023-12-20T01:33:25;5.70;87.90
72206;DHT22;60111;48.286;7.812;2023-12-20T01:35:57;5.70;87.70
72206;DHT22;60111;48.286;7.812;2023-12-20T01:38:29;5.70;88.00
72206;DHT22;60111;48.286;7.812;2023-12-20T01:41:01;5.70;87.90
72206;DHT22;60111;48.286;7.812;2023-12-20T01:43:33;5.70;87.80
72206;DHT22;60111;48.286;7.812;2023-12-20T01:46:04;5.70;87.90
72206;DHT22;60111;48.286;7.812;2023-12-20T01:48:37;5.70;88.30
72206;DHT22;60111;48.286;7.812;2023-12-20T01:51:09;5.70;87.90
72206;DHT22;60111;48.286;7.812;2023-12-20T01:53:42;5.70;88.10
72206;DHT22;60111;48.286;7.812;2023-12-20T01:56:15;5.70;88.80
72206;DHT22;60111;48.286;7.812;2023-12-20T01:58:47;5.70;88.40
72206;DHT22;60111;48.286;7.812;2023-12-20T02:01:19;5.70;88.20
72206;DHT22;60111;48.286;7.812;2023-12-20T02:03:51;5.70;88.60
72206;DHT22;60111;48.286;7.812;2023-12-20T02:06:23;5.70;88.60
72206;DHT22;60111;48.286;7.812;2023-12-20T02:08:56;5.70;88.80
72206;DHT22;60111;48.286;7.812;2023-12-20T02:11:29;5.70;88.90
72206;DHT22;60111;48.286;7.812;2023-12-20T02:14:01;5.70;88.70
72206;DHT22;60111;48.286;7.812;2023-12-20T02:16:32;5.70;89.00
72206;DHT22;60111;48.286;7.812;2023-12-20T02:19:05;5.70;89.10
72206;DHT22;60111;48.286;7.812;2023-12-20T02:21:38;5.60;89.30
72206;DHT22;60111;48.286;7.812;2023-12-20T02:24:10;5.70;89.20
72206;DHT22;60111;48.286;7.812;2023-12-20T02:26:41;5.70;89.60
72206;DHT22;60111;48.286;7.812;2023-12-20T02:29:13;5.70;89.40
72206;DHT22;60111;48.286;7.812;2023-12-20T02:31:45;5.70;89.40
72206;DHT22;60111;48.286;7.812;2023-12-20T02:34:17;5.70;89.90
72206;DHT22;60111;48.286;7.812;2023-12-20T02:36:49;5.70;89.80
72206;DHT22;60111;48.286;7.812;2023-12-20T02:39:21;5.70;89.80
72206;DHT22;60111;48.286;7.812;2023-12-20T02:41:53;5.70;89.90
72206;DHT22;60111;48.286;7.812;2023-12-20T02:44:25;5.70;89.40
72206;DHT22;60111;48.286;7.812;2023-12-20T02:46:57;5.70;89.70
72206;DHT22;60111;48.286;7.812;2023-12-20T02:49:29;5.70;90.00
72206;DHT22;60111;48.286;7.812;2023-12-20T02:52:00;5.70;90.10
72206;DHT22;60111;48.286;7.812;2023-12-20T02:54:32;5.70;90.20
72206;DHT22;60111;48.286;7.812;2023-12-20T02:57:04;5.70;90.40
72206;DHT22;60111;48.286;7.812;2023-12-20T02:59:36;5.70;90.40
72206;DHT22;60111;48.286;7.812;2023-12-20T03:02:08;5.70;90.30
72206;DHT22;60111;48.286;7.812;2023-12-20T03:04:40;5.70;90.20
72206;DHT22;60111;48.286;7.812;2023-12-20T03:07:11;5.70;90.10
72206;DHT22;60111;48.286;7.812;2023-12-20T03:09:43;5.70;89.90
72206;DHT22;60111;48.286;7.812;2023-12-20T03:12:15;5.70;90.10
72206;DHT22;60111;48.286;7.812;2023-12-20T03:14:47;5.70;90.10
72206;DHT22;60111;48.286;7.812;2023-12-20T03:17:20;5.70;90.40
72206;DHT22;60111;48.286;7.812;2023-12-20T03:19:52;5.70;90.00
72206;DHT22;60111;48.286;7.812;2023-12-20T03:22:23;5.70;90.70
72206;DHT22;60111;48.286;7.812;2023-12-20T03:24:55;5.60;90.70
72206;DHT22;60111;48.286;7.812;2023-12-20T03:27:27;5.70;90.90
72206;DHT22;60111;48.286;7.812;2023-12-20T03:29:59;5.70;90.80
72206;DHT22;60111;48.286;7.812;2023-12-20T03:32:31;5.70;90.90
72206;DHT22;60111;48.286;7.812;2023-12-20T03:35:03;5.70;90.90
72206;DHT22;60111;48.286;7.812;2023-12-20T03:37:35;5.60;90.90
72206;DHT22;60111;48.286;7.812;2023-12-20T03:40:06;5.60;91.30
72206;DHT22;60111;48.286;7.812;2023-12-20T03:42:38;5.60;91.40
72206;DHT22;60111;48.286;7.812;2023-12-20T03:45:10;5.60;91.30
72206;DHT22;60111;48.286;7.812;2023-12-20T03:47:42;5.70;91.30
72206;DHT22;60111;48.286;7.812;2023-12-20T03:50:14;5.70;91.00
72206;DHT22;60111;48.286;7.812;2023-12-20T03:52:46;5.60;91.00
72206;DHT22;60111;48.286;7.812;2023-12-20T03:55:18;5.70;91.30
72206;DHT22;60111;48.286;7.812;2023-12-20T03:57:50;5.70;91.30
72206;DHT22;60111;48.286;7.812;2023-12-20T04:00:21;5.70;91.30
72206;DHT22;60111;48.286;7.812;2023-12-20T04:02:53;5.70;91.30
72206;DHT22;60111;48.286;7.812;2023-12-20T04:05:25;5.70;91.10
72206;DHT22;60111;48.286;7.812;2023-12-20T04:07:57;5.70;90.90
72206;DHT22;60111;48.286;7.812;2023-12-20T04:10:29;5.80;90.90
72206;DHT22;60111;48.286;7.812;2023-12-20T04:13:01;5.70;90.80
72206;DHT22;60111;48.286;7.812;2023-12-20T04:15:33;5.80;90.50
72206;DHT22;60111;48.286;7.812;2023-12-20T04:18:05;5.90;90.50
72206;DHT22;60111;48.286;7.812;2023-12-20T04:20:37;5.80;90.40
72206;DHT22;60111;48.286;7.812;2023-12-20T04:23:09;5.80;90.30
72206;DHT22;60111;48.286;7.812;2023-12-20T04:25:40;5.80;90.70
72206;DHT22;60111;48.286;7.812;2023-12-20T04:28:12;5.80;90.70
72206;DHT22;60111;48.286;7.812;2023-12-20T04:30:44;5.80;91.00
72206;DHT22;60111;48.286;7.812;2023-12-20T04:33:16;5.70;91.30
72206;DHT22;60111;48.286;7.812;2023-12-20T04:35:48;5.80;90.80
72206;DHT22;60111;48.286;7.812;2023-12-20T04:38:20;5.80;90.60
72206;DHT22;60111;48.286;7.812;2023-12-20T04:40:52;5.80;90.80
72206;DHT22;60111;48.286;7.812;2023-12-20T04:43:23;5.80;90.80
72206;DHT22;60111;48.286;7.812;2023-12-20T04:45:55;5.90;91.00
72206;DHT22;60111;48.286;7.812;2023-12-20T04:48:27;5.80;90.70
72206;DHT22;60111;48.286;7.812;2023-12-20T04:50:59;5.80;90.60
72206;DHT22;60111;48.286;7.812;2023-12-20T04:53:31;5.90;91.00
72206;DHT22;60111;48.286;7.812;2023-12-20T04:56:03;5.90;90.70
72206;DHT22;60111;48.286;7.812;2023-12-20T04:58:35;5.80;90.90
72206;DHT22;60111;48.286;7.812;2023-12-20T05:01:08;5.90;91.00
72206;DHT22;60111;48.286;7.812;2023-12-20T05:03:40;5.90;90.80
72206;DHT22;60111;48.286;7.812;2023-12-20T05:06:11;5.90;90.70
72206;DHT22;60111;48.286;7.812;2023-12-20T05:08:43;5.80;90.90
72206;DHT22;60111;48.286;7.812;2023-12-20T05:11:15;5.80;90.90
72206;DHT22;60111;48.286;7.812;2023-12-20T05:13:47;5.70;90.90
72206;DHT22;60111;48.286;7.812;2023-12-20T05:16:19;5.70;91.60
72206;DHT22;60111;48.286;7.812;2023-12-20T05:18:51;5.80;91.30
72206;DHT22;60111;48.286;7.812;2023-12-20T05:21:23;5.80;91.50
72206;DHT22;60111;48.286;7.812;2023-12-20T05:23:55;5.80;91.40
72206;DHT22;60111;48.286;7.812;2023-12-20T05:26:27;5.80;91.10
72206;DHT22;60111;48.286;7.812;2023-12-20T05:29:01;5.70;91.40
72206;DHT22;60111;48.286;7.812;2023-12-20T05:31:33;5.70;91.40
72206;DHT22;60111;48.286;7.812;2023-12-20T05:34:04;5.80;91.20
72206;DHT22;60111;48.286;7.812;2023-12-20T05:36:36;5.70;91.20
72206;DHT22;60111;48.286;7.812;2023-12-20T05:39:09;5.80;91.40
72206;DHT22;60111;48.286;7.812;2023-12-20T05:41:41;5.70;91.30
72206;DHT22;60111;48.286;7.812;2023-12-20T05:44:13;5.70;91.70
72206;DHT22;60111;48.286;7.812;2023-12-20T05:46:45;5.70;92.00
72206;DHT22;60111;48.286;7.812;2023-12-20T05:49:17;5.70;91.70
72206;DHT22;60111;48.286;7.812;2023-12-20T05:51:49;5.60;91.80
72206;DHT22;60111;48.286;7.812;2023-12-20T05:54:22;5.60;92.00
72206;DHT22;60111;48.286;7.812;2023-12-20T05:56:53;5.60;92.20
72206;DHT22;60111;48.286;7.812;2023-12-20T05:59:25;5.80;91.40
72206;DHT22;60111;48.286;7.812;2023-12-20T06:01:57;5.70;90.90
72206;DHT22;60111;48.286;7.812;2023-12-20T06:04:29;5.80;90.90
72206;DHT22;60111;48.286;7.812;2023-12-20T06:07:01;5.70;91.10
72206;DHT22;60111;48.286;7.812;2023-12-20T06:09:33;5.80;91.40
72206;DHT22;60111;48.286;7.812;2023-12-20T06:12:05;5.80;91.20
72206;DHT22;60111;48.286;7.812;2023-12-20T06:14:37;5.80;91.20
72206;DHT22;60111;48.286;7.812;2023-12-20T06:17:09;5.70;91.40
72206;DHT22;60111;48.286;7.812;2023-12-20T06:19:40;5.70;91.50
72206;DHT22;60111;48.286;7.812;2023-12-20T06:22:15;5.70;91.60
72206;DHT22;60111;48.286;7.812;2023-12-20T06:24:46;5.70;91.70
72206;DHT22;60111;48.286;7.812;2023-12-20T06:27:18;5.70;91.50
72206;DHT22;60111;48.286;7.812;2023-12-20T06:29:50;5.60;91.70
72206;DHT22;60111;48.286;7.812;2023-12-20T06:32:22;5.70;91.70
72206;DHT22;60111;48.286;7.812;2023-12-20T06:34:54;5.80;91.30
72206;DHT22;60111;48.286;7.812;2023-12-20T06:37:26;5.70;91.40
72206;DHT22;60111;48.286;7.812;2023-12-20T06:39:58;5.70;91.30
72206;DHT22;60111;48.286;7.812;2023-12-20T06:42:30;5.70;91.40
72206;DHT22;60111;48.286;7.812;2023-12-20T06:45:02;5.70;91.40
72206;DHT22;60111;48.286;7.812;2023-12-20T06:47:33;5.60;91.60
72206;DHT22;60111;48.286;7.812;2023-12-20T06:50:05;5.80;91.30
72206;DHT22;60111;48.286;7.812;2023-12-20T06:52:39;5.80;91.00
72206;DHT22;60111;48.286;7.812;2023-12-20T06:55:11;5.70;91.30
72206;DHT22;60111;48.286;7.812;2023-12-20T06:57:42;5.70;91.50
72206;DHT22;60111;48.286;7.812;2023-12-20T07:00:15;5.70;91.60
72206;DHT22;60111;48.286;7.812;2023-12-20T07:02:47;5.70;91.70
72206;DHT22;60111;48.286;7.812;2023-12-20T07:05:18;5.70;91.70
72206;DHT22;60111;48.286;7.812;2023-12-20T07:07:50;5.70;91.50
72206;DHT22;60111;48.286;7.812;2023-12-20T07:10:22;5.80;91.20
72206;DHT22;60111;48.286;7.812;2023-12-20T07:12:54;5.70;91.30
72206;DHT22;60111;48.286;7.812;2023-12-20T07:15:26;5.70;91.60
72206;DHT22;60111;48.286;7.812;2023-12-20T07:17:59;5.70;91.80
72206;DHT22;60111;48.286;7.812;2023-12-20T07:20:31;5.80;91.70
72206;DHT22;60111;48.286;7.812;2023-12-20T07:23:03;5.70;91.60
72206;DHT22;60111;48.286;7.812;2023-12-20T07:25:35;5.70;91.60
72206;DHT22;60111;48.286;7.812;2023-12-20T07:28:07;5.70;91.70
72206;DHT22;60111;48.286;7.812;2023-12-20T07:30:39;5.70;91.80
72206;DHT22;60111;48.286;7.812;2023-12-20T07:33:10;5.70;91.80
72206;DHT22;60111;48.286;7.812;2023-12-20T07:35:43;5.60;92.00
72206;DHT22;60111;48.286;7.812;2023-12-20T07:38:16;5.70;92.10
72206;DHT22;60111;48.286;7.812;2023-12-20T07:40:48;5.70;92.10
72206;DHT22;60111;48.286;7.812;2023-12-20T07:43:19;5.60;92.10
72206;DHT22;60111;48.286;7.812;2023-12-20T07:45:52;5.60;92.30
72206;DHT22;60111;48.286;7.812;2023-12-20T07:48:24;5.80;92.00
72206;DHT22;60111;48.286;7.812;2023-12-20T07:50:56;5.70;91.50
72206;DHT22;60111;48.286;7.812;2023-12-20T07:53:28;5.80;91.50
72206;DHT22;60111;48.286;7.812;2023-12-20T07:56:00;5.80;91.40
72206;DHT22;60111;48.286;7.812;2023-12-20T07:58:31;5.80;91.30
72206;DHT22;60111;48.286;7.812;2023-12-20T08:01:03;5.80;91.30
72206;DHT22;60111;48.286;7.812;2023-12-20T08:03:35;5.80;91.40
72206;DHT22;60111;48.286;7.812;2023-12-20T08:06:07;5.80;91.60
72206;DHT22;60111;48.286;7.812;2023-12-20T08:08:39;5.70;91.80
72206;DHT22;60111;48.286;7.812;2023-12-20T08:11:11;5.70;91.90
72206;DHT22;60111;48.286;7.812;2023-12-20T08:13:43;5.70;92.10
72206;DHT22;60111;48.286;7.812;2023-12-20T08:16:15;5.70;92.20
72206;DHT22;60111;48.286;7.812;2023-12-20T08:18:48;5.70;92.40
72206;DHT22;60111;48.286;7.812;2023-12-20T08:21:20;5.70;92.50
72206;DHT22;60111;48.286;7.812;2023-12-20T08:23:53;5.70;92.50
72206;DHT22;60111;48.286;7.812;2023-12-20T08:26:25;5.80;92.60
72206;DHT22;60111;48.286;7.812;2023-12-20T08:28:57;5.80;92.60
72206;DHT22;60111;48.286;7.812;2023-12-20T08:31:29;5.90;92.60
72206;DHT22;60111;48.286;7.812;2023-12-20T08:34:01;5.90;92.50
72206;DHT22;60111;48.286;7.812;2023-12-20T08:36:33;5.90;92.40
72206;DHT22;60111;48.286;7.812;2023-12-20T08:39:05;6.00;92.20
72206;DHT22;60111;48.286;7.812;2023-12-20T08:41:38;6.00;92.10
72206;DHT22;60111;48.286;7.812;2023-12-20T08:44:10;6.10;92.00
72206;DHT22;60111;48.286;7.812;2023-12-20T08:46:42;6.10;91.90
72206;DHT22;60111;48.286;7.812;2023-12-20T08:49:14;6.20;91.80
72206;DHT22;60111;48.286;7.812;2023-12-20T08:51:46;6.30;91.80
72206;DHT22;60111;48.286;7.812;2023-12-20T08:54:18;6.40;91.10
72206;DHT22;60111;48.286;7.812;2023-12-20T08:56:50;6.40;89.80
72206;DHT22;60111;48.286;7.812;2023-12-20T08:59:22;6.50;89.00
72206;DHT22;60111;48.286;7.812;2023-12-20T09:01:54;6.60;88.80
72206;DHT22;60111;48.286;7.812;2023-12-20T09:04:27;6.60;88.10
72206;DHT22;60111;48.286;7.812;2023-12-20T09:06:59;6.60;87.90
72206;DHT22;60111;48.286;7.812;2023-12-20T09:09:32;6.60;87.70
72206;DHT22;60111;48.286;7.812;2023-12-20T09:12:04;6.80;87.60
72206;DHT22;60111;48.286;7.812;2023-12-20T09:14:36;7.00;87.10
72206;DHT22;60111;48.286;7.812;2023-12-20T09:17:08;7.20;86.50
72206;DHT22;60111;48.286;7.812;2023-12-20T09:19:41;7.20;85.20
72206;DHT22;60111;48.286;7.812;2023-12-20T09:22:14;7.40;85.50
72206;DHT22;60111;48.286;7.812;2023-12-20T09:24:46;7.50;84.50
72206;DHT22;60111;48.286;7.812;2023-12-20T09:27:18;7.60;84.10
72206;DHT22;60111;48.286;7.812;2023-12-20T09:29:50;7.60;80.10
72206;DHT22;60111;48.286;7.812;2023-12-20T09:32:22;7.60;78.00
72206;DHT22;60111;48.286;7.812;2023-12-20T09:34:54;7.50;77.80
72206;DHT22;60111;48.286;7.812;2023-12-20T09:37:26;7.30;79.40
72206;DHT22;60111;48.286;7.812;2023-12-20T09:39:58;7.20;76.90
72206;DHT22;60111;48.286;7.812;2023-12-20T09:42:38;7.10;77.90
72206;DHT22;60111;48.286;7.812;2023-12-20T09:45:09;6.90;76.20
72206;DHT22;60111;48.286;7.812;2023-12-20T09:47:47;6.90;72.20
72206;DHT22;60111;48.286;7.812;2023-12-20T09:50:16;6.80;71.70
72206;DHT22;60111;48.286;7.812;2023-12-20T09:52:50;6.70;73.20
72206;DHT22;60111;48.286;7.812;2023-12-20T09:55:23;6.60;72.70
72206;DHT22;60111;48.286;7.812;2023-12-20T09:57:56;6.60;71.50
72206;DHT22;60111;48.286;7.812;2023-12-20T10:00:28;6.60;71.10
72206;DHT22;60111;48.286;7.812;2023-12-20T10:03:00;6.60;69.80
72206;DHT22;60111;48.286;7.812;2023-12-20T10:05:32;6.60;71.70
72206;DHT22;60111;48.286;7.812;2023-12-20T10:08:05;7.70;68.00
72206;DHT22;60111;48.286;7.812;2023-12-20T10:10:37;8.80;63.10
72206;DHT22;60111;48.286;7.812;2023-12-20T10:13:10;9.50;59.70
72206;DHT22;60111;48.286;7.812;2023-12-20T10:15:42;10.10;60.60
72206;DHT22;60111;48.286;7.812;2023-12-20T10:18:14;10.50;57.40
72206;DHT22;60111;48.286;7.812;2023-12-20T10:20:46;10.50;58.00
72206;DHT22;60111;48.286;7.812;2023-12-20T10:23:18;10.30;60.30
72206;DHT22;60111;48.286;7.812;2023-12-20T10:25:58;9.70;58.10
72206;DHT22;60111;48.286;7.812;2023-12-20T10:28:32;9.20;59.40
72206;DHT22;60111;48.286;7.812;2023-12-20T10:31:03;8.50;61.30
72206;DHT22;60111;48.286;7.812;2023-12-20T10:33:35;8.20;62.70
72206;DHT22;60111;48.286;7.812;2023-12-20T10:36:07;8.10;64.70
72206;DHT22;60111;48.286;7.812;2023-12-20T10:38:38;8.20;64.90
72206;DHT22;60111;48.286;7.812;2023-12-20T10:41:12;8.30;64.30
72206;DHT22;60111;48.286;7.812;2023-12-20T10:43:47;8.30;62.90
72206;DHT22;60111;48.286;7.812;2023-12-20T10:46:19;8.30;63.50
72206;DHT22;60111;48.286;7.812;2023-12-20T10:48:53;8.30;62.70
72206;DHT22;60111;48.286;7.812;2023-12-20T10:51:25;8.30;63.30
72206;DHT22;60111;48.286;7.812;2023-12-20T10:54:02;8.30;63.00
72206;DHT22;60111;48.286;7.812;2023-12-20T10:56:34;8.30;62.60
72206;DHT22;60111;48.286;7.812;2023-12-20T10:59:07;8.30;61.90
72206;DHT22;60111;48.286;7.812;2023-12-20T11:01:40;8.30;62.00
72206;DHT22;60111;48.286;7.812;2023-12-20T11:04:15;8.40;62.10
72206;DHT22;60111;48.286;7.812;2023-12-20T11:06:51;8.50;61.80
72206;DHT22;60111;48.286;7.812;2023-12-20T11:09:26;8.60;61.70
72206;DHT22;60111;48.286;7.812;2023-12-20T11:12:18;8.70;61.00
72206;DHT22;60111;48.286;7.812;2023-12-20T11:14:51;8.70;61.30
72206;DHT22;60111;48.286;7.812;2023-12-20T11:17:23;8.70;61.50
72206;DHT22;60111;48.286;7.812;2023-12-20T11:22:32;8.60;61.10
72206;DHT22;60111;48.286;7.812;2023-12-20T11:25:05;8.70;59.90
72206;DHT22;60111;48.286;7.812;2023-12-20T11:27:41;8.80;62.00
72206;DHT22;60111;48.286;7.812;2023-12-20T11:30:15;8.90;59.80
72206;DHT22;60111;48.286;7.812;2023-12-20T11:32:47;8.90;59.50
72206;DHT22;60111;48.286;7.812;2023-12-20T11:35:19;8.70;60.40
72206;DHT22;60111;48.286;7.812;2023-12-20T11:37:52;8.40;61.10
72206;DHT22;60111;48.286;7.812;2023-12-20T11:40:24;8.20;60.40
72206;DHT22;60111;48.286;7.812;2023-12-20T11:42:56;8.00;61.20
72206;DHT22;60111;48.286;7.812;2023-12-20T11:45:28;7.90;61.90
72206;DHT22;60111;48.286;7.812;2023-12-20T11:48:00;7.90;60.60
72206;DHT22;60111;48.286;7.812;2023-12-20T11:50:33;7.80;61.90
72206;DHT22;60111;48.286;7.812;2023-12-20T11:53:04;7.80;61.70
72206;DHT22;60111;48.286;7.812;2023-12-20T11:55:37;7.70;62.70
72206;DHT22;60111;48.286;7.812;2023-12-20T11:58:09;7.60;62.00
72206;DHT22;60111;48.286;7.812;2023-12-20T12:00:41;7.60;62.60
72206;DHT22;60111;48.286;7.812;2023-12-20T12:03:14;7.50;62.30
72206;DHT22;60111;48.286;7.812;2023-12-20T12:05:47;7.50;62.70
72206;DHT22;60111;48.286;7.812;2023-12-20T12:08:19;7.40;63.50
72206;DHT22;60111;48.286;7.812;2023-12-20T12:10:51;7.40;63.80
72206;DHT22;60111;48.286;7.812;2023-12-20T12:13:23;7.40;63.80
72206;DHT22;60111;48.286;7.812;2023-12-20T12:15:56;7.40;63.40
72206;DHT22;60111;48.286;7.812;2023-12-20T12:18:28;7.40;64.20
72206;DHT22;60111;48.286;7.812;2023-12-20T12:21:00;7.40;64.70
72206;DHT22;60111;48.286;7.812;2023-12-20T12:23:33;7.40;63.90
72206;DHT22;60111;48.286;7.812;2023-12-20T12:26:05;7.40;64.20
72206;DHT22;60111;48.286;7.812;2023-12-20T12:28:39;7.40;64.50
72206;DHT22;60111;48.286;7.812;2023-12-20T12:31:14;7.40;64.40
72206;DHT22;60111;48.286;7.812;2023-12-20T12:33:49;7.50;63.30
72206;DHT22;60111;48.286;7.812;2023-12-20T12:36:21;7.50;63.90
72206;DHT22;60111;48.286;7.812;2023-12-20T12:38:53;7.40;64.20
72206;DHT22;60111;48.286;7.812;2023-12-20T12:41:25;7.40;64.40
72206;DHT22;60111;48.286;7.812;2023-12-20T12:43:56;7.40;64.60
72206;DHT22;60111;48.286;7.812;2023-12-20T12:46:28;7.50;64.10
72206;DHT22;60111;48.286;7.812;2023-12-20T12:49:00;7.60;64.40
72206;DHT22;60111;48.286;7.812;2023-12-20T12:51:32;7.70;63.70
72206;DHT22;60111;48.286;7.812;2023-12-20T12:54:04;7.70;64.30
72206;DHT22;60111;48.286;7.812;2023-12-20T12:56:36;7.70;64.30
72206;DHT22;60111;48.286;7.812;2023-12-20T12:59:08;7.80;64.30
72206;DHT22;60111;48.286;7.812;2023-12-20T13:01:40;7.80;64.40
72206;DHT22;60111;48.286;7.812;2023-12-20T13:04:12;7.80;63.80
72206;DHT22;60111;48.286;7.812;2023-12-20T13:06:44;7.80;64.50
72206;DHT22;60111;48.286;7.812;2023-12-20T13:09:16;7.80;65.30
72206;DHT22;60111;48.286;7.812;2023-12-20T13:11:47;7.90;64.90
72206;DHT22;60111;48.286;7.812;2023-12-20T13:14:19;7.90;64.80
72206;DHT22;60111;48.286;7.812;2023-12-20T13:16:51;7.90;64.20
72206;DHT22;60111;48.286;7.812;2023-12-20T13:19:23;7.80;63.10
72206;DHT22;60111;48.286;7.812;2023-12-20T13:21:55;7.70;64.70
72206;DHT22;60111;48.286;7.812;2023-12-20T13:24:26;7.70;63.60
72206;DHT22;60111;48.286;7.812;2023-12-20T13:27:00;7.70;63.40
72206;DHT22;60111;48.286;7.812;2023-12-20T13:29:32;7.70;63.80
72206;DHT22;60111;48.286;7.812;2023-12-20T13:32:04;7.50;64.20
72206;DHT22;60111;48.286;7.812;2023-12-20T13:34:36;7.60;64.50
72206;DHT22;60111;48.286;7.812;2023-12-20T13:37:09;7.60;64.10
72206;DHT22;60111;48.286;7.812;2023-12-20T13:39:41;7.60;63.80
72206;DHT22;60111;48.286;7.812;2023-12-20T13:42:12;7.60;64.50
72206;DHT22;60111;48.286;7.812;2023-12-20T13:44:44;7.50;64.80
72206;DHT22;60111;48.286;7.812;2023-12-20T13:47:17;7.50;65.20
72206;DHT22;60111;48.286;7.812;2023-12-20T13:49:50;7.50;65.70
72206;DHT22;60111;48.286;7.812;2023-12-20T13:52:22;7.50;65.70
72206;DHT22;60111;48.286;7.812;2023-12-20T13:54:54;7.50;66.30
72206;DHT22;60111;48.286;7.812;2023-12-20T13:57:25;7.50;65.60
72206;DHT22;60111;48.286;7.812;2023-12-20T13:59:58;7.50;65.10
72206;DHT22;60111;48.286;7.812;2023-12-20T14:02:30;7.50;64.20
72206;DHT22;60111;48.286;7.812;2023-12-20T14:05:02;7.50;64.60
72206;DHT22;60111;48.286;7.812;2023-12-20T14:07:34;7.50;64.10
72206;DHT22;60111;48.286;7.812;2023-12-20T14:10:06;7.50;64.20
72206;DHT22;60111;48.286;7.812;2023-12-20T14:12:38;7.40;64.80
72206;DHT22;60111;48.286;7.812;2023-12-20T14:15:11;7.50;64.50
72206;DHT22;60111;48.286;7.812;2023-12-20T14:17:44;7.40;65.70
72206;DHT22;60111;48.286;7.812;2023-12-20T14:20:15;7.30;64.90
72206;DHT22;60111;48.286;7.812;2023-12-20T14:22:47;7.30;65.50
72206;DHT22;60111;48.286;7.812;2023-12-20T14:25:19;7.30;66.00
72206;DHT22;60111;48.286;7.812;2023-12-20T14:27:51;7.30;67.10
72206;DHT22;60111;48.286;7.812;2023-12-20T14:30:23;7.20;66.30
72206;DHT22;60111;48.286;7.812;2023-12-20T14:32:55;7.20;66.10
72206;DHT22;60111;48.286;7.812;2023-12-20T14:35:27;7.20;66.40
72206;DHT22;60111;48.286;7.812;2023-12-20T14:37:58;7.20;67.40
72206;DHT22;60111;48.286;7.812;2023-12-20T14:40:30;7.20;67.00
72206;DHT22;60111;48.286;7.812;2023-12-20T14:43:02;7.10;67.00
72206;DHT22;60111;48.286;7.812;2023-12-20T14:45:35;7.10;66.50
72206;DHT22;60111;48.286;7.812;2023-12-20T14:48:07;7.00;67.50
72206;DHT22;60111;48.286;7.812;2023-12-20T14:50:39;7.00;68.40
72206;DHT22;60111;48.286;7.812;2023-12-20T14:53:14;6.90;68.10
72206;DHT22;60111;48.286;7.812;2023-12-20T14:55:47;6.90;68.50
72206;DHT22;60111;48.286;7.812;2023-12-20T14:58:20;6.90;68.70
72206;DHT22;60111;48.286;7.812;2023-12-20T15:00:52;6.90;69.20
72206;DHT22;60111;48.286;7.812;2023-12-20T15:03:24;6.90;69.70
72206;DHT22;60111;48.286;7.812;2023-12-20T15:05:56;6.90;69.50
72206;DHT22;60111;48.286;7.812;2023-12-20T15:08:29;6.90;68.60
72206;DHT22;60111;48.286;7.812;2023-12-20T15:11:01;6.90;68.00
72206;DHT22;60111;48.286;7.812;2023-12-20T15:13:34;6.90;67.50
72206;DHT22;60111;48.286;7.812;2023-12-20T15:16:06;6.80;68.30
72206;DHT22;60111;48.286;7.812;2023-12-20T15:18:38;6.80;69.00
72206;DHT22;60111;48.286;7.812;2023-12-20T15:21:10;6.80;68.90
72206;DHT22;60111;48.286;7.812;2023-12-20T15:23:42;6.70;69.20
72206;DHT22;60111;48.286;7.812;2023-12-20T15:26:15;6.80;69.00
72206;DHT22;60111;48.286;7.812;2023-12-20T15:28:47;6.70;69.00
72206;DHT22;60111;48.286;7.812;2023-12-20T15:31:19;6.80;69.40
72206;DHT22;60111;48.286;7.812;2023-12-20T15:33:52;6.70;69.40
72206;DHT22;60111;48.286;7.812;2023-12-20T15:36:24;6.70;69.60
72206;DHT22;60111;48.286;7.812;2023-12-20T15:38:56;6.60;69.90
72206;DHT22;60111;48.286;7.812;2023-12-20T15:41:28;6.70;69.70
72206;DHT22;60111;48.286;7.812;2023-12-20T15:44:00;6.70;69.60
72206;DHT22;60111;48.286;7.812;2023-12-20T15:46:32;6.70;69.50
72206;DHT22;60111;48.286;7.812;2023-12-20T15:49:04;6.80;68.90
72206;DHT22;60111;48.286;7.812;2023-12-20T15:51:36;6.70;69.30
72206;DHT22;60111;48.286;7.812;2023-12-20T15:54:08;6.70;69.10
72206;DHT22;60111;48.286;7.812;2023-12-20T15:56:40;6.70;69.40
72206;DHT22;60111;48.286;7.812;2023-12-20T15:59:12;6.60;69.40
72206;DHT22;60111;48.286;7.812;2023-12-20T16:01:44;6.60;70.00
72206;DHT22;60111;48.286;7.812;2023-12-20T16:04:16;6.60;71.40
72206;DHT22;60111;48.286;7.812;2023-12-20T16:06:48;6.50;72.20
72206;DHT22;60111;48.286;7.812;2023-12-20T16:09:20;6.60;72.00
72206;DHT22;60111;48.286;7.812;2023-12-20T16:11:51;6.60;70.20
72206;DHT22;60111;48.286;7.812;2023-12-20T16:14:23;6.60;71.00
72206;DHT22;60111;48.286;7.812;2023-12-20T16:16:57;6.60;71.30
72206;DHT22;60111;48.286;7.812;2023-12-20T16:19:30;6.50;71.90